ESUT

Hemavan Airport

Sweden
METAR ESUT 171350Z AUTO 00000KT 2500 -SN BKN008/// BKN018/// OVC023/// M07/M07 Q1016
Observed Flight Rules
Dec-17 @ 13:50 UTC (40 minutes ago) Instrument Flight Rules
Visibility Clouds Conditions
2,494 meters
  • Broken at 800' AGL
  • Broken at 1,800' AGL
  • Overcast at 2,300' AGL
  • Light Snow
Temperatures Readings
Current -7°C / 19°F
Dewpoint -7°C / 19°F
Humidity 100%
Altimeter 30" Hg
Pressure 1016 hPa
Elevation 463
METAR ESUT 171350Z AUTO 00000KT 2500 -SN BKN008/// BKN018/// OVC023/// M07/M07 Q1016
Observed Flight Rules
Dec-17 @ 13:50 UTC
(40 minutes ago)
IFR
Clouds
  • Broken at 800' AGL
  • Broken at 1,800' AGL
  • Overcast at 2,300' AGL
Conditions
  • Light Snow
Temperature Dewpoint
-7°C / 19°F -7°C / 19°F
Humidity Altimeter Pressure
100% 30" Hg 1016 hPa